createdAt,value
2019-04-20T00:00:06.697Z,56.53
2019-04-20T00:02:37.747Z,55.52
2019-04-20T00:05:07.907Z,55.16
2019-04-20T00:07:37.654Z,56.20
2019-04-20T00:10:13.743Z,57.19
2019-04-20T00:12:54.570Z,57.27
2019-04-20T00:15:11.128Z,57.37
2019-04-20T00:17:46.009Z,59.13
2019-04-20T00:20:18.980Z,59.49
2019-04-20T00:22:58.160Z,61.00
2019-04-20T00:25:49.809Z,61.53
2019-04-20T00:28:24.120Z,62.33
2019-04-20T00:30:53.129Z,62.20
2019-04-20T00:33:26.825Z,62.56
2019-04-20T00:35:42.128Z,63.96
2019-04-20T00:38:11.918Z,63.64
2019-04-20T00:40:41.388Z,63.88
2019-04-20T00:43:13.046Z,63.63
2019-04-20T00:45:46.755Z,64.04
2019-04-20T00:48:22.437Z,65.15
2019-04-20T00:50:59.296Z,65.26
2019-04-20T00:53:22.643Z,65.47
2019-04-20T00:55:46.424Z,65.18
2019-04-20T00:58:24.478Z,66.34
2019-04-20T01:01:07.397Z,67.36
2019-04-20T01:03:34.042Z,67.36
2019-04-20T01:06:13.409Z,66.73
2019-04-20T01:08:29.666Z,67.27
2019-04-20T01:10:59.863Z,67.10
2019-04-20T01:13:31.641Z,67.19
2019-04-20T01:16:08.705Z,66.23
2019-04-20T01:18:33.862Z,67.63
2019-04-20T01:21:06.753Z,67.16
2019-04-20T01:23:40.411Z,67.38
2019-04-20T01:26:11.139Z,68.11
2019-04-20T01:28:51.126Z,68.02
2019-04-20T01:31:18.752Z,68.67
2019-04-20T01:33:50.627Z,69.06
2019-04-20T01:36:33.574Z,69.17
2019-04-20T01:38:56.743Z,69.68
2019-04-20T01:41:14.045Z,69.65
2019-04-20T01:43:44.256Z,70.44
2019-04-20T01:46:18.249Z,69.90
2019-04-20T01:48:46.316Z,69.89
2019-04-20T01:51:21.305Z,70.12
2019-04-20T01:54:07.090Z,70.26
2019-04-20T01:56:37.377Z,70.30
2019-04-20T01:59:10.710Z,70.94
2019-04-20T02:01:37.666Z,71.16
2019-04-20T02:04:15.080Z,71.27
2019-04-20T02:06:46.430Z,71.75
2019-04-20T02:09:15.726Z,72.10
2019-04-20T02:11:45.367Z,73.04
2019-04-20T02:14:18.924Z,72.60
2019-04-20T02:16:49.611Z,72.99
2019-04-20T02:19:33.406Z,72.34
2019-04-20T02:22:02.589Z,72.32
2019-04-20T02:24:19.505Z,72.37
2019-04-20T02:26:51.562Z,73.12
2019-04-20T02:29:46.256Z,72.01
2019-04-20T02:32:23.793Z,71.56
2019-04-20T02:35:03.430Z,71.81
2019-04-20T02:42:47.678Z,70.83
2019-04-20T02:47:40.392Z,70.22
2019-04-20T02:50:14.968Z,70.34
2019-04-20T02:52:48.948Z,70.51
2019-04-20T02:57:47.347Z,71.12
2019-04-20T03:02:27.237Z,70.99
2019-04-20T03:04:56.207Z,71.58
2019-04-20T03:07:30.382Z,71.94
2019-04-20T03:10:08.402Z,72.03
2019-04-20T03:12:38.351Z,71.46
2019-04-20T03:15:02.840Z,71.99
2019-04-20T03:17:49.359Z,72.12
2019-04-20T03:20:14.336Z,72.67
2019-04-20T03:23:05.506Z,72.88
2019-04-20T03:25:19.808Z,73.79
2019-04-20T03:27:45.986Z,73.93
2019-04-20T03:33:28.770Z,73.66
2019-04-20T03:35:51.499Z,74.33
2019-04-20T03:38:14.659Z,75.08
2019-04-20T03:40:44.386Z,75.33
2019-04-20T03:42:57.043Z,74.60
2019-04-20T03:45:28.181Z,74.40
2019-04-20T03:48:09.120Z,74.25
2019-04-20T03:50:54.614Z,74.34
2019-04-20T03:53:22.644Z,74.33
2019-04-20T03:55:50.081Z,74.09
2019-04-20T03:58:40.110Z,73.59
2019-04-20T04:01:27.269Z,73.71
2019-04-20T04:03:59.130Z,73.17
2019-04-20T04:06:17.746Z,72.70
2019-04-20T04:08:55.514Z,72.82
2019-04-20T04:11:32.649Z,73.17
2019-04-20T04:13:43.850Z,73.20
2019-04-20T04:16:17.318Z,74.13
2019-04-20T04:18:49.643Z,74.79
2019-04-20T04:21:27.107Z,75.07
2019-04-20T04:24:02.509Z,75.59
2019-04-20T04:26:37.826Z,75.47
2019-04-20T04:29:13.696Z,74.88
2019-04-20T04:31:49.179Z,74.70
2019-04-20T04:34:09.349Z,74.87
2019-04-20T04:36:46.220Z,74.48
2019-04-20T04:39:21.021Z,74.67
2019-04-20T04:41:56.044Z,74.61
2019-04-20T04:44:11.054Z,74.62
2019-04-20T04:46:33.931Z,74.00
2019-04-20T04:49:10.193Z,74.08
2019-04-20T04:51:42.681Z,74.38
2019-04-20T04:54:16.561Z,74.35
2019-04-20T04:56:35.554Z,74.50
2019-04-20T04:59:05.013Z,74.48
2019-04-20T05:01:36.985Z,74.56
2019-04-20T05:04:24.792Z,74.17
2019-04-20T05:06:53.230Z,74.13
2019-04-20T05:09:11.895Z,73.77
2019-04-20T05:11:40.550Z,73.61
2019-04-20T05:14:15.018Z,73.19
2019-04-20T05:16:54.608Z,72.79
2019-04-20T05:19:38.191Z,73.43
2019-04-20T05:22:09.818Z,72.95
2019-04-20T05:24:34.884Z,71.89
2019-04-20T05:27:33.533Z,71.44
2019-04-20T05:29:42.776Z,70.85
2019-04-20T05:32:18.004Z,69.74
2019-04-20T05:35:07.403Z,68.87
2019-04-20T05:37:53.511Z,68.38
2019-04-20T05:40:10.678Z,66.79
2019-04-20T05:42:35.922Z,64.00
2019-04-20T05:45:07.628Z,61.07
2019-04-20T05:47:41.557Z,58.33
2019-04-20T05:50:05.041Z,56.85
2019-04-20T05:52:50.891Z,54.58
2019-04-20T05:55:14.415Z,53.21
2019-04-20T05:57:50.753Z,53.22
2019-04-20T06:00:23.470Z,51.42
2019-04-20T06:02:52.405Z,50.07
2019-04-20T06:05:23.990Z,47.17
2019-04-20T06:07:48.846Z,45.79
2019-04-20T06:10:26.004Z,46.56
2019-04-20T06:12:51.614Z,48.28
2019-04-20T06:15:36.657Z,49.29
2019-04-20T06:18:06.302Z,48.32
2019-04-20T06:21:08.495Z,46.13
2019-04-20T06:23:40.965Z,47.94
2019-04-20T06:28:48.933Z,50.49
2019-04-20T06:31:24.515Z,50.43
2019-04-20T06:34:30.119Z,51.56
2019-04-20T06:39:32.607Z,53.02
2019-04-20T06:42:15.354Z,53.10
2019-04-20T06:49:42.189Z,54.21
2019-04-20T06:52:15.348Z,53.66
2019-04-20T06:54:42.150Z,53.49
2019-04-20T06:57:18.114Z,53.06
2019-04-20T07:00:04.099Z,52.86
2019-04-20T07:02:22.237Z,52.61
2019-04-20T07:07:19.583Z,51.59
2019-04-20T07:12:16.774Z,51.17
2019-04-20T07:14:43.848Z,50.63
2019-04-20T07:17:43.945Z,50.78
2019-04-20T07:19:56.473Z,52.06
2019-04-20T07:25:02.368Z,53.49
2019-04-20T07:27:35.441Z,51.59
2019-04-20T07:30:08.069Z,51.08
2019-04-20T07:32:42.672Z,52.29
2019-04-20T07:35:08.199Z,51.53
2019-04-20T07:38:05.221Z,51.67
2019-04-20T07:40:16.316Z,50.22
2019-04-20T07:42:49.478Z,50.99
2019-04-20T07:45:24.152Z,50.26
2019-04-20T07:48:07.822Z,49.38
2019-04-20T07:50:12.910Z,48.76
2019-04-20T07:52:38.471Z,47.99
2019-04-20T07:57:47.370Z,47.43
2019-04-20T08:00:27.909Z,46.72
2019-04-20T08:03:18.576Z,47.57
2019-04-20T08:05:46.659Z,47.58
2019-04-20T08:08:24.837Z,46.99
2019-04-20T08:10:54.257Z,47.95
2019-04-20T08:13:40.299Z,48.30
2019-04-20T08:16:00.752Z,48.09
2019-04-20T08:18:32.237Z,47.36
2019-04-20T08:21:02.434Z,46.58
2019-04-20T08:23:34.759Z,45.99
2019-04-20T08:25:54.380Z,44.79
2019-04-20T08:28:29.388Z,46.30
2019-04-20T08:31:09.386Z,45.66
2019-04-20T08:33:58.201Z,47.08
2019-04-20T08:36:16.711Z,45.81
2019-04-20T08:39:09.118Z,45.79
2019-04-20T08:41:12.907Z,45.99
2019-04-20T08:44:11.386Z,46.08
2019-04-20T08:46:21.939Z,45.55
2019-04-20T08:48:52.023Z,43.78
2019-04-20T08:51:25.497Z,43.93
2019-04-20T08:53:54.040Z,42.92
2019-04-20T08:56:18.766Z,43.10
2019-04-20T08:58:38.868Z,43.57
2019-04-20T09:01:13.920Z,41.85
2019-04-20T09:03:51.301Z,40.29
2019-04-20T09:06:29.533Z,41.07
2019-04-20T09:08:57.777Z,38.38
2019-04-20T09:11:38.494Z,38.77
2019-04-20T09:13:55.275Z,39.83
2019-04-20T09:16:26.894Z,38.80
2019-04-20T09:18:59.886Z,37.08
2019-04-20T09:21:35.546Z,35.96
2019-04-20T09:24:21.709Z,34.67
2019-04-20T09:26:47.731Z,27.39
2019-04-20T09:29:12.346Z,25.74
2019-04-20T09:31:43.702Z,26.08
2019-04-20T09:34:20.103Z,24.86
2019-04-20T09:36:54.983Z,25.37
2019-04-20T09:39:33.866Z,24.15
2019-04-20T09:42:03.067Z,23.82
2019-04-20T09:44:40.912Z,23.84
2019-04-20T09:47:07.396Z,22.47
2019-04-20T09:49:54.384Z,21.38
2019-04-20T09:52:28.029Z,22.55
2019-04-20T09:54:59.910Z,24.18
2019-04-20T09:57:35.042Z,21.04
2019-04-20T10:00:04.290Z,23.00
2019-04-20T10:02:23.634Z,22.85
2019-04-20T10:04:47.717Z,23.04
2019-04-20T10:07:21.119Z,21.17
2019-04-20T10:09:49.053Z,23.15
2019-04-20T10:12:19.820Z,21.91
2019-04-20T10:14:49.435Z,21.13
2019-04-20T10:17:20.212Z,19.79
2019-04-20T10:19:49.668Z,19.19
2019-04-20T10:22:20.376Z,19.94
2019-04-20T10:24:50.926Z,19.94
2019-04-20T10:27:21.028Z,20.34
2019-04-20T10:29:51.450Z,19.60
2019-04-20T10:32:25.090Z,17.98
2019-04-20T10:34:52.744Z,17.39
2019-04-20T10:37:24.042Z,18.92
2019-04-20T10:39:54.438Z,19.84
2019-04-20T10:42:26.085Z,18.85
2019-04-20T10:44:58.566Z,19.02
2019-04-20T10:47:27.296Z,18.70
2019-04-20T10:49:58.780Z,19.31
2019-04-20T10:52:29.799Z,18.76
2019-04-20T10:55:00.778Z,19.21
2019-04-20T10:57:31.758Z,18.78
2019-04-20T11:00:01.791Z,18.41
2019-04-20T11:02:31.932Z,17.91
2019-04-20T11:05:02.592Z,17.52
2019-04-20T11:07:34.671Z,17.31
2019-04-20T11:10:15.712Z,17.68
2019-04-20T11:12:44.772Z,18.24
2019-04-20T11:15:14.647Z,16.96
2019-04-20T11:17:45.976Z,16.38
2019-04-20T11:20:19.244Z,17.76
2019-04-20T11:22:48.627Z,16.13
2019-04-20T11:25:18.065Z,17.27
2019-04-20T11:27:48.070Z,15.22
2019-04-20T11:30:20.272Z,15.20
2019-04-20T11:32:51.937Z,15.63
2019-04-20T11:35:28.033Z,14.16
2019-04-20T11:37:53.443Z,15.62
2019-04-20T11:40:23.290Z,16.75
2019-04-20T11:42:53.427Z,15.91
2019-04-20T11:45:24.504Z,15.48
2019-04-20T11:47:55.775Z,15.04
2019-04-20T11:50:25.429Z,14.56
2019-04-20T11:52:55.317Z,14.87
2019-04-20T11:55:24.955Z,15.74
2019-04-20T11:57:54.625Z,15.10
2019-04-20T12:00:44.306Z,14.84
2019-04-20T12:03:16.325Z,16.09
2019-04-20T12:05:45.996Z,15.48
2019-04-20T12:08:11.321Z,16.46
2019-04-20T12:10:43.850Z,15.83
2019-04-20T12:13:14.588Z,14.93
2019-04-20T12:15:43.457Z,16.06
2019-04-20T12:18:15.754Z,15.64
2019-04-20T12:20:45.345Z,15.46
2019-04-20T12:23:15.960Z,14.40
2019-04-20T12:25:46.304Z,18.18
2019-04-20T12:28:15.916Z,18.18
2019-04-20T12:30:45.970Z,16.30
2019-04-20T12:33:15.654Z,16.98
2019-04-20T12:35:45.319Z,15.83
2019-04-20T12:38:17.145Z,16.07
2019-04-20T12:40:48.373Z,16.50
2019-04-20T12:43:19.085Z,16.41
2019-04-20T12:45:49.667Z,16.74
2019-04-20T12:48:21.790Z,16.21
2019-04-20T12:50:50.906Z,15.95
2019-04-20T12:53:20.547Z,17.24
2019-04-20T12:55:50.714Z,16.87
2019-04-20T12:58:20.910Z,16.36
2019-04-20T13:00:54.368Z,17.86
2019-04-20T13:03:24.036Z,17.12
2019-04-20T13:05:54.311Z,15.42
2019-04-20T13:08:30.352Z,16.40
2019-04-20T13:10:58.247Z,16.20
2019-04-20T13:13:30.424Z,16.61
2019-04-20T13:16:14.340Z,16.74
2019-04-20T13:18:45.583Z,17.30
2019-04-20T13:21:19.025Z,16.48
2019-04-20T13:23:49.074Z,16.48
2019-04-20T13:26:19.339Z,16.25
2019-04-20T13:28:48.897Z,15.88
2019-04-20T13:31:18.294Z,16.79
2019-04-20T13:33:49.477Z,17.25
2019-04-20T13:36:19.956Z,15.22
2019-04-20T13:38:50.532Z,15.10
2019-04-20T13:41:20.011Z,15.11
2019-04-20T13:43:50.255Z,14.71
2019-04-20T13:46:21.062Z,16.08
2019-04-20T13:48:51.071Z,14.51
2019-04-20T13:51:23.016Z,16.25
2019-04-20T13:53:53.275Z,17.02
2019-04-20T13:56:24.102Z,15.88
2019-04-20T13:58:56.215Z,15.88
2019-04-20T14:01:37.011Z,15.78
2019-04-20T14:04:08.509Z,16.41
2019-04-20T14:06:39.501Z,16.76
2019-04-20T14:09:09.843Z,16.12
2019-04-20T14:11:41.268Z,17.12
2019-04-20T14:14:11.063Z,18.91
2019-04-20T14:16:41.200Z,18.04
2019-04-20T14:19:11.290Z,19.16
2019-04-20T14:21:41.759Z,18.20
2019-04-20T14:24:11.420Z,18.16
2019-04-20T14:26:42.880Z,18.36
2019-04-20T14:29:14.681Z,17.57
2019-04-20T14:31:44.339Z,15.78
2019-04-20T14:34:15.080Z,16.63
2019-04-20T14:36:44.655Z,17.97
2019-04-20T14:39:14.191Z,16.58
2019-04-20T14:41:44.501Z,17.71
2019-04-20T14:44:14.079Z,17.76
2019-04-20T14:46:43.549Z,18.09
2019-04-20T14:49:12.955Z,18.17
2019-04-20T14:51:43.683Z,17.92
2019-04-20T14:54:13.859Z,18.13
2019-04-20T14:56:45.435Z,17.49
2019-04-20T14:59:19.928Z,18.09
2019-04-20T15:01:52.424Z,17.87
2019-04-20T15:04:24.945Z,18.40
2019-04-20T15:06:53.122Z,17.21
2019-04-20T15:09:22.454Z,18.02
2019-04-20T15:11:52.716Z,17.20
2019-04-20T15:14:22.795Z,17.33
2019-04-20T15:16:52.850Z,18.63
2019-04-20T15:19:25.328Z,18.19
2019-04-20T15:21:57.753Z,18.53
2019-04-20T15:24:27.394Z,18.94
2019-04-20T15:26:56.787Z,18.70
2019-04-20T15:29:26.436Z,16.99
2019-04-20T15:31:56.515Z,17.75
2019-04-20T15:34:26.749Z,17.75
2019-04-20T15:36:56.248Z,17.62
2019-04-20T15:39:25.597Z,18.77
2019-04-20T15:41:54.944Z,18.17
2019-04-20T15:44:25.118Z,18.32
2019-04-20T15:46:55.223Z,18.76
2019-04-20T15:49:26.312Z,18.43
2019-04-20T15:51:56.032Z,18.74
2019-04-20T15:54:27.505Z,17.75
2019-04-20T15:57:02.382Z,18.47
2019-04-20T15:59:28.555Z,18.07
2019-04-20T16:02:03.167Z,17.10
2019-04-20T16:04:50.785Z,17.54
2019-04-20T16:07:23.364Z,16.75
2019-04-20T16:09:53.268Z,18.30
2019-04-20T16:12:22.919Z,18.58
2019-04-20T16:14:53.501Z,17.46
2019-04-20T16:17:30.716Z,17.58
2019-04-20T16:20:01.383Z,18.82
2019-04-20T16:22:26.837Z,17.68
2019-04-20T16:25:14.418Z,17.45
2019-04-20T16:27:43.856Z,18.20
2019-04-20T16:30:13.623Z,17.66
2019-04-20T16:32:44.798Z,18.02
2019-04-20T16:35:14.661Z,17.69
2019-04-20T16:37:44.437Z,17.83
2019-04-20T16:40:15.692Z,18.76
2019-04-20T16:42:45.743Z,19.05
2019-04-20T16:45:17.066Z,18.72
2019-04-20T16:47:48.114Z,19.33
2019-04-20T16:50:19.185Z,18.84
2019-04-20T16:52:48.913Z,19.15
2019-04-20T16:55:18.826Z,19.36
2019-04-20T16:57:50.944Z,19.35
2019-04-20T17:00:21.140Z,19.86
2019-04-20T17:02:52.157Z,20.73
2019-04-20T17:05:23.040Z,21.86
2019-04-20T17:07:57.397Z,23.19
2019-04-20T17:10:28.867Z,22.21
2019-04-20T17:12:59.944Z,23.50
2019-04-20T17:15:29.697Z,25.14
2019-04-20T17:17:59.107Z,26.64
2019-04-20T17:20:28.858Z,26.53
2019-04-20T17:22:58.450Z,29.18
2019-04-20T17:25:28.061Z,27.55
2019-04-20T17:27:59.553Z,28.08
2019-04-20T17:30:44.232Z,27.71
2019-04-20T17:33:21.272Z,28.99
2019-04-20T17:35:57.362Z,28.62
2019-04-20T17:38:22.331Z,29.18
2019-04-20T17:41:08.695Z,30.29
2019-04-20T17:43:31.300Z,29.59
2019-04-20T17:46:06.979Z,30.68
2019-04-20T17:48:38.781Z,30.44
2019-04-20T17:51:20.459Z,30.76
2019-04-20T17:53:50.060Z,31.09
2019-04-20T17:56:12.359Z,31.71
2019-04-20T17:58:43.910Z,32.59
2019-04-20T18:01:47.829Z,32.93
2019-04-20T18:06:50.117Z,36.81
2019-04-20T18:09:34.647Z,39.29
2019-04-20T18:11:47.234Z,41.24
2019-04-20T18:14:34.116Z,43.20
2019-04-20T18:17:05.835Z,44.93
2019-04-20T18:19:22.924Z,46.17
2019-04-20T18:21:58.033Z,48.33
2019-04-20T18:24:52.393Z,48.90
2019-04-20T18:27:24.874Z,50.04
2019-04-20T18:29:48.059Z,49.69
2019-04-20T18:32:03.020Z,50.19
2019-04-20T18:34:44.970Z,50.11
2019-04-20T18:37:16.914Z,49.49
2019-04-20T18:39:54.813Z,50.24
2019-04-20T18:42:23.416Z,50.60
2019-04-20T18:45:09.277Z,51.48
2019-04-20T18:47:43.941Z,51.80
2019-04-20T18:50:01.130Z,52.00
2019-04-20T18:52:21.969Z,52.88
2019-04-20T18:54:55.284Z,52.78
2019-04-20T18:57:27.215Z,53.77
2019-04-20T18:59:56.435Z,52.75
2019-04-20T19:02:30.907Z,52.76
2019-04-20T19:04:58.628Z,53.42
2019-04-20T19:07:27.980Z,53.06
2019-04-20T19:10:04.355Z,52.01
2019-04-20T19:12:39.562Z,52.24
2019-04-20T19:15:28.208Z,52.61
2019-04-20T19:17:49.333Z,52.10
2019-04-20T19:20:12.052Z,52.68
2019-04-20T19:22:41.990Z,53.16
2019-04-20T19:25:18.444Z,52.09
2019-04-20T19:27:48.703Z,48.57
2019-04-20T19:30:25.713Z,49.60
2019-04-20T19:33:04.795Z,50.06
2019-04-20T19:35:30.894Z,48.34
2019-04-20T19:37:59.514Z,47.03
2019-04-20T19:40:33.811Z,48.08
2019-04-20T19:43:02.422Z,46.54
2019-04-20T19:46:15.274Z,45.49
2019-04-20T19:48:09.318Z,46.46
2019-04-20T19:50:53.734Z,46.04
2019-04-20T19:53:22.955Z,45.69
2019-04-20T19:55:41.171Z,46.50
2019-04-20T19:58:11.485Z,46.25
2019-04-20T20:00:38.619Z,49.15
2019-04-20T20:03:09.908Z,47.67
2019-04-20T20:05:45.031Z,50.52
2019-04-20T20:08:17.696Z,50.40
2019-04-20T20:10:45.495Z,49.70
2019-04-20T20:13:15.156Z,51.34
2019-04-20T20:15:45.554Z,49.94
2019-04-20T20:18:34.329Z,50.77
2019-04-20T20:20:59.667Z,50.97
2019-04-20T20:23:18.248Z,50.06
2019-04-20T20:25:49.780Z,51.19
2019-04-20T20:28:30.799Z,51.35
2019-04-20T20:31:02.005Z,52.81
2019-04-20T20:33:39.478Z,51.56
2019-04-20T20:36:03.854Z,52.14
2019-04-20T20:38:32.442Z,51.42
2019-04-20T20:41:05.654Z,50.08
2019-04-20T20:43:43.520Z,51.04
2019-04-20T20:46:12.369Z,50.22
2019-04-20T20:48:54.336Z,50.84
2019-04-20T20:51:15.001Z,49.94
2019-04-20T20:53:45.666Z,48.94
2019-04-20T20:56:12.002Z,49.10
2019-04-20T20:58:48.487Z,47.34
2019-04-20T21:01:14.118Z,47.68
2019-04-20T21:03:43.399Z,47.69
2019-04-20T21:06:09.682Z,47.06
2019-04-20T21:08:45.618Z,45.85
2019-04-20T21:11:13.181Z,45.62
2019-04-20T21:13:46.453Z,46.29
2019-04-20T21:16:19.742Z,46.48
2019-04-20T21:19:02.055Z,47.64
2019-04-20T21:21:27.411Z,47.59
2019-04-20T21:23:54.937Z,48.30
2019-04-20T21:26:27.075Z,47.74
2019-04-20T21:28:52.165Z,47.63
2019-04-20T21:31:24.263Z,47.82
2019-04-20T21:33:53.428Z,48.12
2019-04-20T21:36:27.545Z,48.38
2019-04-20T21:38:54.238Z,47.96
2019-04-20T21:41:25.394Z,48.47
2019-04-20T21:43:55.898Z,48.24
2019-04-20T21:46:30.744Z,47.56
2019-04-20T21:49:09.602Z,47.74
2019-04-20T21:51:37.037Z,47.11
2019-04-20T21:54:00.352Z,46.33
2019-04-20T21:56:30.087Z,47.06
2019-04-20T21:59:02.483Z,46.70
2019-04-20T22:01:37.840Z,46.64
2019-04-20T22:04:02.694Z,46.85
2019-04-20T22:06:32.349Z,46.57
2019-04-20T22:09:04.034Z,46.70
2019-04-20T22:11:33.834Z,45.27
2019-04-20T22:14:11.677Z,46.15
2019-04-20T22:16:38.938Z,45.14
2019-04-20T22:19:20.946Z,46.06
2019-04-20T22:21:50.362Z,45.81
2019-04-20T22:24:26.598Z,45.93
2019-04-20T22:26:53.822Z,45.94
2019-04-20T22:29:12.033Z,45.46
2019-04-20T22:31:46.185Z,45.39
2019-04-20T22:34:19.056Z,45.93
2019-04-20T22:36:48.448Z,45.84
2019-04-20T22:39:23.512Z,47.00
2019-04-20T22:41:58.602Z,46.26
2019-04-20T22:44:26.319Z,47.17
2019-04-20T22:46:54.284Z,47.25
2019-04-20T22:49:43.081Z,47.56
2019-04-20T22:52:02.805Z,47.81
2019-04-20T22:54:40.419Z,48.25
2019-04-20T22:57:08.291Z,49.05
2019-04-20T22:59:38.310Z,49.87
2019-04-20T23:02:01.191Z,49.73
2019-04-20T23:04:30.997Z,50.21
2019-04-20T23:07:00.965Z,50.13
2019-04-20T23:09:32.817Z,50.41
2019-04-20T23:12:08.055Z,50.72
2019-04-20T23:14:34.216Z,50.76
2019-04-20T23:17:04.347Z,51.02
2019-04-20T23:19:42.864Z,50.38
2019-04-20T23:22:08.545Z,50.28
2019-04-20T23:24:37.379Z,50.90
2019-04-20T23:27:13.974Z,51.09
2019-04-20T23:29:41.401Z,51.15
2019-04-20T23:32:11.926Z,51.50
2019-04-20T23:34:42.675Z,51.78
2019-04-20T23:37:17.044Z,51.75
2019-04-20T23:39:46.977Z,51.96
2019-04-20T23:42:16.165Z,52.58
2019-04-20T23:44:54.178Z,52.70
2019-04-20T23:47:23.605Z,52.99
2019-04-20T23:50:12.413Z,52.98
2019-04-20T23:52:48.782Z,53.03
2019-04-20T23:55:04.127Z,53.59
2019-04-20T23:57:29.532Z,53.79
